createdAt,value
2023-02-27T00:01:13.425Z,1.08
2023-02-27T00:03:39.815Z,1.08
2023-02-27T00:06:06.378Z,1.05
2023-02-27T00:08:32.887Z,1.04
2023-02-27T00:10:59.400Z,1.01
2023-02-27T00:13:25.741Z,0.95
2023-02-27T00:15:52.158Z,0.86
2023-02-27T00:18:18.582Z,0.90
2023-02-27T00:20:44.947Z,0.84
2023-02-27T00:23:11.397Z,0.86
2023-02-27T00:25:37.761Z,0.80
2023-02-27T00:28:04.950Z,0.78
2023-02-27T00:30:31.389Z,0.71
2023-02-27T00:32:57.967Z,0.68
2023-02-27T00:35:24.505Z,0.69
2023-02-27T00:37:50.888Z,0.73
2023-02-27T00:40:17.742Z,0.72
2023-02-27T00:42:46.203Z,0.67
2023-02-27T00:45:12.695Z,0.68
2023-02-27T00:47:39.077Z,0.68
2023-02-27T00:50:06.069Z,0.65
2023-02-27T00:52:33.814Z,0.60
2023-02-27T00:55:00.839Z,0.56
2023-02-27T00:57:27.533Z,0.53
2023-02-27T00:59:53.896Z,0.51
2023-02-27T01:02:20.327Z,0.45
2023-02-27T01:04:46.931Z,0.44
2023-02-27T01:07:13.430Z,0.47
2023-02-27T01:09:39.829Z,0.48
2023-02-27T01:12:08.638Z,0.49
2023-02-27T01:14:35.501Z,0.47
2023-02-27T01:17:02.439Z,0.46
2023-02-27T01:19:28.941Z,0.42
2023-02-27T01:21:55.300Z,0.37
2023-02-27T01:24:24.959Z,0.33
2023-02-27T01:26:52.724Z,0.32
2023-02-27T01:29:27.454Z,0.28
2023-02-27T01:32:04.396Z,0.25
2023-02-27T01:34:57.758Z,0.23
2023-02-27T01:37:24.311Z,0.22
2023-02-27T01:40:04.369Z,0.21
2023-02-27T01:42:31.013Z,0.22
2023-02-27T01:45:36.840Z,0.23
2023-02-27T01:48:21.794Z,0.21
2023-02-27T01:50:57.660Z,0.21
2023-02-27T01:53:26.177Z,0.18
2023-02-27T01:56:07.473Z,0.17
2023-02-27T01:58:34.625Z,0.16
2023-02-27T02:01:01.238Z,0.11
2023-02-27T02:03:43.784Z,0.08
2023-02-27T02:06:15.571Z,0.05
2023-02-27T02:08:45.697Z,0.01
2023-02-27T02:11:15.077Z,-0.02
2023-02-27T02:13:55.364Z,-0.06
2023-02-27T02:16:33.883Z,-0.08
2023-02-27T02:19:08.075Z,-0.07
2023-02-27T02:21:41.487Z,-0.07
2023-02-27T02:24:47.444Z,-0.08
2023-02-27T02:27:42.207Z,-0.09
2023-02-27T02:30:27.664Z,-0.10
2023-02-27T02:33:20.482Z,-0.13
2023-02-27T02:36:17.648Z,-0.16
2023-02-27T02:38:59.207Z,-0.14
2023-02-27T02:41:46.377Z,-0.15
2023-02-27T02:44:27.538Z,-0.16
2023-02-27T02:47:21.904Z,-0.13
2023-02-27T02:50:14.574Z,-0.12
2023-02-27T02:52:59.277Z,-0.09
2023-02-27T02:55:56.878Z,-0.07
2023-02-27T02:58:43.524Z,-0.05
2023-02-27T03:01:22.129Z,-0.05
2023-02-27T03:03:55.204Z,-0.04
2023-02-27T03:06:30.756Z,-0.02
2023-02-27T03:09:11.321Z,-0.05
2023-02-27T03:11:42.978Z,-0.05
2023-02-27T03:14:37.052Z,-0.11
2023-02-27T03:17:10.967Z,-0.12
2023-02-27T03:19:43.564Z,-0.14
2023-02-27T03:22:26.691Z,-0.16
2023-02-27T03:24:57.394Z,-0.21
2023-02-27T03:27:28.063Z,-0.28
2023-02-27T03:30:02.275Z,-0.36
2023-02-27T03:32:56.868Z,-0.35
2023-02-27T03:35:31.558Z,-0.39
2023-02-27T03:38:21.144Z,-0.42
2023-02-27T03:41:11.583Z,-0.35
2023-02-27T03:43:47.481Z,-0.34
2023-02-27T03:46:27.961Z,-0.34
2023-02-27T03:48:54.496Z,-0.33
2023-02-27T03:51:47.604Z,-0.33
2023-02-27T03:54:22.979Z,-0.36
2023-02-27T03:57:07.694Z,-0.37
2023-02-27T03:59:37.264Z,-0.39
2023-02-27T04:02:05.157Z,-0.40
2023-02-27T04:04:32.874Z,-0.40
2023-02-27T04:07:28.795Z,-0.39
2023-02-27T04:10:16.647Z,-0.41
2023-02-27T04:13:13.221Z,-0.40
2023-02-27T04:15:46.707Z,-0.41
2023-02-27T04:18:30.512Z,-0.40
2023-02-27T04:21:11.321Z,-0.42
2023-02-27T04:24:32.315Z,-0.47
2023-02-27T04:27:24.455Z,-0.46
2023-02-27T04:30:16.151Z,-0.45
2023-02-27T04:32:59.766Z,-0.44
2023-02-27T04:36:02.413Z,-0.44
2023-02-27T04:54:23.029Z,-0.53
2023-02-27T04:57:02.214Z,-0.54
2023-02-27T04:59:36.534Z,-0.56
2023-02-27T05:02:14.357Z,-0.56
2023-02-27T05:04:46.215Z,-0.55
2023-02-27T05:07:19.002Z,-0.58
2023-02-27T05:09:52.428Z,-0.62
2023-02-27T05:12:32.575Z,-0.65
2023-02-27T05:15:51.892Z,-0.65
2023-02-27T05:18:21.762Z,-0.68
2023-02-27T05:20:57.554Z,-0.70
2023-02-27T05:23:26.865Z,-0.69
2023-02-27T05:26:14.135Z,-0.70
2023-02-27T05:29:32.724Z,-0.68
2023-02-27T05:32:15.159Z,-0.67
2023-02-27T05:35:19.775Z,-0.63
2023-02-27T05:37:52.257Z,-0.66
2023-02-27T05:40:24.885Z,-0.71
2023-02-27T05:43:00.326Z,-0.69
2023-02-27T05:45:38.950Z,-0.69
2023-02-27T05:48:29.672Z,-0.72
2023-02-27T05:51:16.710Z,-0.72
2023-02-27T05:53:50.252Z,-0.73
2023-02-27T06:01:07.825Z,-0.72
2023-02-27T06:03:41.032Z,-0.76
2023-02-27T06:06:18.971Z,-0.76
2023-02-27T06:08:46.245Z,-0.74
2023-02-27T06:11:13.349Z,-0.80
2023-02-27T06:13:42.078Z,-0.81
2023-02-27T06:16:11.454Z,-0.81
2023-02-27T06:18:37.965Z,-0.80
2023-02-27T06:21:36.638Z,-0.80
2023-02-27T06:24:15.440Z,-0.78
2023-02-27T06:26:41.909Z,-0.78
2023-02-27T06:29:08.330Z,-0.78
2023-02-27T06:31:34.841Z,-0.80
2023-02-27T06:34:06.090Z,-0.82
2023-02-27T06:36:32.579Z,-0.79
2023-02-27T06:38:59.119Z,-0.82
2023-02-27T06:41:29.146Z,-0.80
2023-02-27T06:43:56.496Z,-0.79
2023-02-27T06:46:23.134Z,-0.79
2023-02-27T06:48:49.627Z,-0.77
2023-02-27T06:51:16.111Z,-0.76
2023-02-27T06:53:44.789Z,-0.72
2023-02-27T06:56:11.282Z,-0.73
2023-02-27T06:58:40.816Z,-0.73
2023-02-27T07:01:07.373Z,-0.68
2023-02-27T07:03:33.943Z,-0.63
2023-02-27T07:06:02.886Z,-0.58
2023-02-27T07:08:29.427Z,-0.56
2023-02-27T07:10:55.993Z,-0.53
2023-02-27T07:13:22.547Z,-0.54
2023-02-27T07:15:50.718Z,-0.49
2023-02-27T07:18:25.650Z,-0.46
2023-02-27T07:20:52.787Z,-0.45
2023-02-27T07:23:19.348Z,-0.39
2023-02-27T07:25:53.945Z,-0.33
2023-02-27T07:28:20.593Z,-0.28
2023-02-27T07:30:56.486Z,-0.25
2023-02-27T07:33:23.826Z,-0.20
2023-02-27T07:35:50.416Z,-0.12
2023-02-27T07:38:19.019Z,-0.01
2023-02-27T07:40:46.499Z,0.12
2023-02-27T07:43:13.033Z,0.19
2023-02-27T07:45:39.533Z,0.31
2023-02-27T07:48:09.265Z,0.40
2023-02-27T07:50:35.685Z,0.52
2023-02-27T07:53:02.131Z,0.64
2023-02-27T07:55:28.646Z,0.77
2023-02-27T07:57:55.029Z,0.93
2023-02-27T08:00:22.171Z,1.06
2023-02-27T08:02:48.588Z,1.23
2023-02-27T08:05:15.193Z,1.36
2023-02-27T08:07:41.658Z,1.50
2023-02-27T08:10:08.707Z,1.65
2023-02-27T08:12:35.163Z,1.73
2023-02-27T08:15:01.654Z,1.84
2023-02-27T08:17:28.098Z,2.01
2023-02-27T08:19:54.498Z,2.18
2023-02-27T08:22:21.527Z,2.36
2023-02-27T08:24:47.967Z,2.48
2023-02-27T08:27:15.031Z,2.62
2023-02-27T08:29:43.404Z,2.76
2023-02-27T08:32:09.944Z,2.93
2023-02-27T08:34:36.522Z,3.13
2023-02-27T08:37:03.560Z,3.28
2023-02-27T08:39:29.957Z,3.39
2023-02-27T08:42:03.790Z,3.56
2023-02-27T08:44:30.296Z,3.64
2023-02-27T08:46:56.789Z,3.76
2023-02-27T08:49:25.361Z,3.86
2023-02-27T08:51:52.560Z,3.97
2023-02-27T08:54:19.183Z,4.05
2023-02-27T08:57:08.681Z,4.14
2023-02-27T08:59:35.431Z,4.13
2023-02-27T09:02:27.861Z,4.22
2023-02-27T09:04:54.346Z,4.34
2023-02-27T09:07:20.862Z,4.41
2023-02-27T09:09:50.600Z,4.52
2023-02-27T09:12:17.049Z,4.68
2023-02-27T09:14:44.118Z,4.75
2023-02-27T09:17:10.613Z,4.82
2023-02-27T09:19:37.440Z,4.94
2023-02-27T09:22:03.894Z,4.98
2023-02-27T09:24:30.429Z,5.12
2023-02-27T09:26:56.996Z,5.24
2023-02-27T09:29:24.077Z,5.35
2023-02-27T09:31:50.716Z,5.37
2023-02-27T09:34:17.363Z,5.31
2023-02-27T09:36:45.871Z,5.38
2023-02-27T09:39:12.426Z,5.44
2023-02-27T09:41:57.980Z,5.43
2023-02-27T09:44:45.132Z,5.46
2023-02-27T09:47:21.101Z,5.53
2023-02-27T09:50:00.726Z,5.61
2023-02-27T09:52:29.854Z,5.60
2023-02-27T09:54:56.805Z,5.68
2023-02-27T09:58:08.161Z,5.69
2023-02-27T10:00:48.215Z,5.67
2023-02-27T10:03:49.877Z,5.74
2023-02-27T10:06:28.371Z,5.69
2023-02-27T10:09:21.705Z,5.64
2023-02-27T10:12:10.973Z,5.69
2023-02-27T10:14:46.529Z,5.69
2023-02-27T10:17:39.539Z,5.79
2023-02-27T10:20:20.423Z,5.86
2023-02-27T10:22:48.865Z,5.85
2023-02-27T10:25:30.692Z,5.84
2023-02-27T10:28:11.274Z,5.83
2023-02-27T10:30:38.104Z,5.75
2023-02-27T10:33:13.891Z,5.68
2023-02-27T10:35:44.618Z,5.69
2023-02-27T10:38:27.019Z,5.58
2023-02-27T10:41:03.527Z,5.52
2023-02-27T10:43:30.280Z,5.53
2023-02-27T10:46:23.265Z,5.68
2023-02-27T10:48:50.341Z,5.73
2023-02-27T10:51:38.348Z,5.88
2023-02-27T10:54:23.460Z,5.94
2023-02-27T10:57:02.521Z,6.11
2023-02-27T10:59:33.502Z,6.17
2023-02-27T11:02:45.591Z,6.22
2023-02-27T11:05:29.535Z,6.29
2023-02-27T11:08:09.630Z,6.31
2023-02-27T11:10:59.106Z,6.22
2023-02-27T11:13:29.010Z,6.15
2023-02-27T11:16:10.849Z,6.05
2023-02-27T11:18:40.450Z,5.96
2023-02-27T11:21:20.140Z,5.95
2023-02-27T11:24:07.706Z,6.01
2023-02-27T11:26:37.348Z,6.05
2023-02-27T11:29:12.948Z,6.01
2023-02-27T11:31:39.938Z,6.02
2023-02-27T11:34:08.314Z,6.09
2023-02-27T11:36:44.675Z,6.23
2023-02-27T11:39:48.907Z,6.34
2023-02-27T11:42:37.008Z,6.45
2023-02-27T11:45:03.689Z,6.52
2023-02-27T11:47:37.237Z,6.58
2023-02-27T11:50:22.424Z,6.66
2023-02-27T11:53:28.466Z,6.67
2023-02-27T11:56:02.353Z,6.53
2023-02-27T11:58:35.407Z,6.45
2023-02-27T12:01:07.451Z,6.48
2023-02-27T12:03:55.999Z,6.59
2023-02-27T12:06:29.484Z,6.70
2023-02-27T12:09:02.895Z,6.70
2023-02-27T12:11:40.795Z,6.77
2023-02-27T12:14:41.004Z,6.79
2023-02-27T12:17:20.248Z,6.78
2023-02-27T12:20:04.731Z,6.71
2023-02-27T12:22:37.483Z,6.77
2023-02-27T12:25:33.852Z,7.04
2023-02-27T12:28:08.896Z,7.05
2023-02-27T12:31:01.823Z,7.21
2023-02-27T12:33:51.576Z,7.28
2023-02-27T12:36:18.174Z,7.45
2023-02-27T12:38:44.706Z,7.56
2023-02-27T12:41:42.324Z,7.61
2023-02-27T12:44:18.938Z,7.57
2023-02-27T12:46:54.396Z,7.35
2023-02-27T12:49:31.784Z,7.19
2023-02-27T12:52:26.602Z,7.01
2023-02-27T12:55:06.562Z,6.90
2023-02-27T12:58:15.171Z,6.86
2023-02-27T13:01:00.908Z,6.82
2023-02-27T13:03:48.917Z,6.75
2023-02-27T13:06:29.589Z,6.66
2023-02-27T13:09:33.278Z,6.69
2023-02-27T13:12:18.054Z,6.70
2023-02-27T13:15:30.938Z,6.76
2023-02-27T13:18:30.422Z,6.90
2023-02-27T13:21:04.584Z,6.99
2023-02-27T13:23:36.384Z,7.06
2023-02-27T13:26:12.990Z,7.03
2023-02-27T13:28:40.036Z,6.95
2023-02-27T13:31:27.203Z,6.87
2023-02-27T13:34:13.741Z,6.81
2023-02-27T13:36:52.514Z,6.77
2023-02-27T13:39:51.803Z,6.64
2023-02-27T13:42:27.293Z,6.54
2023-02-27T13:44:58.357Z,6.43
2023-02-27T13:47:30.880Z,6.47
2023-02-27T13:49:59.652Z,6.60
2023-02-27T13:52:31.231Z,6.75
2023-02-27T13:55:06.324Z,6.86
2023-02-27T13:57:38.492Z,7.07
2023-02-27T14:00:26.560Z,7.13
2023-02-27T14:03:06.227Z,7.14
2023-02-27T14:05:45.257Z,6.95
2023-02-27T14:08:11.573Z,6.83
2023-02-27T14:10:40.278Z,6.74
2023-02-27T14:13:45.068Z,6.76
2023-02-27T14:16:32.697Z,6.73
2023-02-27T14:19:00.830Z,6.79
2023-02-27T14:21:49.804Z,6.91
2023-02-27T14:24:18.350Z,6.97
2023-02-27T14:26:46.677Z,7.04
2023-02-27T14:29:23.440Z,7.16
2023-02-27T14:31:51.884Z,7.21
2023-02-27T14:34:21.679Z,7.27
2023-02-27T14:36:54.900Z,7.34
2023-02-27T14:39:23.439Z,7.31
2023-02-27T14:42:12.626Z,7.23
2023-02-27T14:44:43.631Z,7.09
2023-02-27T14:47:18.558Z,7.00
2023-02-27T14:49:50.370Z,6.83
2023-02-27T14:52:23.312Z,6.74
2023-02-27T14:54:50.346Z,6.72
2023-02-27T14:57:23.679Z,6.73
2023-02-27T14:59:54.605Z,6.65
2023-02-27T15:02:25.457Z,6.64
2023-02-27T15:05:13.608Z,6.61
2023-02-27T15:07:40.424Z,6.63
2023-02-27T15:10:09.660Z,6.68
2023-02-27T15:12:39.771Z,6.73
2023-02-27T15:15:09.043Z,6.76
2023-02-27T15:17:41.099Z,6.69
2023-02-27T15:20:32.216Z,6.63
2023-02-27T15:23:01.498Z,6.60
2023-02-27T15:25:30.851Z,6.55
2023-02-27T15:28:21.820Z,6.54
2023-02-27T15:30:49.497Z,6.46
2023-02-27T15:33:16.943Z,6.37
2023-02-27T15:35:45.699Z,6.31
2023-02-27T15:38:31.392Z,6.22
2023-02-27T15:40:59.704Z,6.16
2023-02-27T15:43:27.710Z,6.12
2023-02-27T15:45:54.772Z,6.12
2023-02-27T15:48:21.641Z,6.12
2023-02-27T15:50:52.625Z,6.13
2023-02-27T15:53:22.082Z,6.14
2023-02-27T15:55:55.034Z,6.14
2023-02-27T15:59:00.233Z,6.11
2023-02-27T16:01:30.536Z,6.08
2023-02-27T16:03:59.771Z,6.08
2023-02-27T16:06:29.475Z,6.06
2023-02-27T16:09:19.875Z,6.06
2023-02-27T16:11:46.436Z,6.05
2023-02-27T16:14:39.155Z,6.04
2023-02-27T16:17:22.862Z,6.01
2023-02-27T16:19:49.246Z,6.00
2023-02-27T16:22:17.734Z,5.98
2023-02-27T16:24:44.966Z,5.93
2023-02-27T16:27:26.635Z,5.89
2023-02-27T16:29:57.216Z,5.86
2023-02-27T16:32:29.320Z,5.82
2023-02-27T16:35:05.937Z,5.81
2023-02-27T16:37:38.414Z,5.82
2023-02-27T16:40:19.710Z,5.79
2023-02-27T16:42:46.449Z,5.74
2023-02-27T16:45:49.513Z,5.73
2023-02-27T16:48:15.937Z,5.67
2023-02-27T16:50:43.046Z,5.66
2023-02-27T16:53:09.567Z,5.67
2023-02-27T16:55:39.775Z,5.63
2023-02-27T16:58:06.683Z,5.61
2023-02-27T17:00:34.155Z,5.56
2023-02-27T17:03:01.150Z,5.52
2023-02-27T17:05:27.531Z,5.52
2023-02-27T17:07:53.908Z,5.50
2023-02-27T17:10:24.514Z,5.45
2023-02-27T17:12:51.411Z,5.40
2023-02-27T17:15:18.431Z,5.31
2023-02-27T17:18:30.141Z,5.28
2023-02-27T17:21:03.791Z,5.17
2023-02-27T17:23:33.459Z,5.10
2023-02-27T17:26:07.921Z,5.06
2023-02-27T17:28:40.398Z,5.01
2023-02-27T17:31:15.204Z,4.94
2023-02-27T17:33:42.822Z,4.89
2023-02-27T17:36:23.912Z,4.79
2023-02-27T17:39:00.841Z,4.68
2023-02-27T17:41:28.490Z,4.55
2023-02-27T17:43:56.502Z,4.47
2023-02-27T17:46:25.700Z,4.36
2023-02-27T17:48:52.656Z,4.29
2023-02-27T17:51:19.555Z,4.23
2023-02-27T17:53:46.202Z,4.16
2023-02-27T17:56:13.391Z,4.13
2023-02-27T17:58:40.620Z,4.03
2023-02-27T18:01:09.518Z,3.97
2023-02-27T18:03:36.024Z,3.92
2023-02-27T18:06:04.251Z,3.87
2023-02-27T18:08:31.610Z,3.79
2023-02-27T18:10:58.768Z,3.73
2023-02-27T18:13:27.217Z,3.70
2023-02-27T18:15:55.238Z,3.63
2023-02-27T18:18:24.219Z,3.57
2023-02-27T18:21:06.427Z,3.53
2023-02-27T18:23:32.852Z,3.49
2023-02-27T18:25:59.823Z,3.41
2023-02-27T18:28:26.668Z,3.39
2023-02-27T18:30:55.186Z,3.38
2023-02-27T18:33:37.988Z,3.30
2023-02-27T18:36:04.711Z,3.28
2023-02-27T18:38:31.086Z,3.22
2023-02-27T18:40:57.490Z,3.25
2023-02-27T18:43:26.848Z,3.25
2023-02-27T18:45:53.428Z,3.29
2023-02-27T18:48:29.127Z,3.33
2023-02-27T18:51:00.553Z,3.36
2023-02-27T18:53:35.606Z,3.38
2023-02-27T18:56:13.433Z,3.38
2023-02-27T18:58:42.292Z,3.38
2023-02-27T19:01:18.232Z,3.36
2023-02-27T19:03:44.707Z,3.36
2023-02-27T19:06:12.210Z,3.33
2023-02-27T19:08:38.609Z,3.35
2023-02-27T19:11:25.855Z,3.32
2023-02-27T19:13:54.468Z,3.30
2023-02-27T19:16:20.885Z,3.27
2023-02-27T19:18:47.525Z,3.30
2023-02-27T19:21:14.160Z,3.28
2023-02-27T19:23:40.651Z,3.30
2023-02-27T19:26:07.123Z,3.31
2023-02-27T19:28:33.760Z,3.34
2023-02-27T19:31:00.225Z,3.36
2023-02-27T19:33:26.636Z,3.42
2023-02-27T19:35:53.033Z,3.48
2023-02-27T19:38:19.404Z,3.56
2023-02-27T19:40:45.812Z,3.62
2023-02-27T19:43:15.173Z,3.72
2023-02-27T19:45:42.097Z,3.77
2023-02-27T19:48:09.052Z,3.79
2023-02-27T19:50:35.467Z,3.82
2023-02-27T19:53:01.850Z,3.82
2023-02-27T19:55:28.235Z,3.79
2023-02-27T19:57:54.694Z,3.76
2023-02-27T20:00:21.809Z,3.73
2023-02-27T20:02:48.189Z,3.68
2023-02-27T20:05:14.684Z,3.66
2023-02-27T20:07:42.323Z,3.64
2023-02-27T20:10:10.082Z,3.58
2023-02-27T20:12:36.500Z,3.60
2023-02-27T20:15:08.668Z,3.53
2023-02-27T20:17:35.515Z,3.47
2023-02-27T20:20:02.142Z,3.47
2023-02-27T20:22:28.508Z,3.50
2023-02-27T20:24:57.602Z,3.52
2023-02-27T20:27:24.067Z,3.51
2023-02-27T20:29:54.753Z,3.54
2023-02-27T20:32:23.108Z,3.54
2023-02-27T20:34:50.507Z,3.52
2023-02-27T20:37:17.420Z,3.47
2023-02-27T20:39:45.124Z,3.38
2023-02-27T20:42:12.333Z,3.42
2023-02-27T20:44:38.782Z,3.37
2023-02-27T20:47:05.123Z,3.32
2023-02-27T20:49:31.526Z,3.23
2023-02-27T20:51:58.594Z,3.16
2023-02-27T20:54:25.047Z,3.06
2023-02-27T20:56:52.458Z,3.00
2023-02-27T20:59:20.626Z,2.93
2023-02-27T21:01:51.897Z,2.92
2023-02-27T21:04:42.016Z,2.86
2023-02-27T21:07:17.144Z,2.85
2023-02-27T21:09:44.155Z,2.82
2023-02-27T21:12:11.204Z,2.80
2023-02-27T21:14:37.674Z,2.76
2023-02-27T21:17:05.253Z,2.68
2023-02-27T21:19:31.805Z,2.61
2023-02-27T21:21:58.186Z,2.59
2023-02-27T21:24:24.567Z,2.57
2023-02-27T21:26:50.914Z,2.51
2023-02-27T21:29:20.559Z,2.48
2023-02-27T21:31:49.267Z,2.48
2023-02-27T21:34:20.425Z,2.47
2023-02-27T21:36:47.437Z,2.45
2023-02-27T21:39:17.157Z,2.42
2023-02-27T21:41:44.261Z,2.34
2023-02-27T21:44:13.905Z,2.32
2023-02-27T21:46:40.692Z,2.28
2023-02-27T21:49:07.066Z,2.26
2023-02-27T21:51:40.518Z,2.22
2023-02-27T21:54:10.652Z,2.21
2023-02-27T21:56:37.918Z,2.19
2023-02-27T21:59:04.927Z,2.16
2023-02-27T22:01:32.077Z,2.12
2023-02-27T22:03:59.043Z,2.09
2023-02-27T22:06:29.279Z,2.02
2023-02-27T22:08:56.697Z,1.96
2023-02-27T22:11:24.590Z,1.92
2023-02-27T22:13:51.118Z,1.92
2023-02-27T22:16:18.220Z,1.90
2023-02-27T22:18:44.730Z,1.84
2023-02-27T22:21:16.170Z,1.82
2023-02-27T22:23:43.453Z,1.81
2023-02-27T22:26:12.730Z,1.80
2023-02-27T22:28:41.214Z,1.79
2023-02-27T22:31:12.501Z,1.72
2023-02-27T22:33:40.915Z,1.73
2023-02-27T22:36:20.153Z,1.73
2023-02-27T22:38:46.918Z,1.67
2023-02-27T22:41:16.213Z,1.65
2023-02-27T22:43:44.808Z,1.65
2023-02-27T22:46:13.058Z,1.62
2023-02-27T22:48:40.322Z,1.60
2023-02-27T22:51:12.700Z,1.59
2023-02-27T22:53:39.642Z,1.61
2023-02-27T22:56:08.058Z,1.62
2023-02-27T22:58:37.194Z,1.61
2023-02-27T23:01:10.720Z,1.61
2023-02-27T23:03:37.905Z,1.58
2023-02-27T23:06:09.538Z,1.58
2023-02-27T23:08:36.461Z,1.56
2023-02-27T23:11:03.773Z,1.57
2023-02-27T23:13:32.001Z,1.56
2023-02-27T23:15:59.599Z,1.56
2023-02-27T23:18:26.026Z,1.55
2023-02-27T23:20:52.412Z,1.53
2023-02-27T23:23:18.757Z,1.55
2023-02-27T23:25:45.123Z,1.53
2023-02-27T23:28:12.034Z,1.55
2023-02-27T23:30:38.377Z,1.55
2023-02-27T23:33:04.748Z,1.55
2023-02-27T23:35:31.373Z,1.57
2023-02-27T23:37:59.118Z,1.58
2023-02-27T23:40:27.049Z,1.53
2023-02-27T23:42:54.208Z,1.56
2023-02-27T23:45:23.499Z,1.57
2023-02-27T23:48:01.214Z,1.58
2023-02-27T23:50:34.963Z,1.53
2023-02-27T23:53:01.640Z,1.55
2023-02-27T23:55:30.155Z,1.57
2023-02-27T23:57:58.424Z,1.54
